Time;durP1;ratioP1;P1;durP2;ratioP2;P2;SDS_P1;SDS_P2;PMS_P1;PMS_P2;Temp;Humidity;BMP_temperature;BMP_pressure;BME280_temperature;BME280_humidity;BME280_pressure;Samples;Min_cycle;Max_cycle;Signal;HPM_P1;HPM_P2
2022/04/13 00:00:15;;;;;;;9.53;9.03;;;;;;;4.17;70.28;93003.84;5008947;28;20250;-70
2022/04/13 00:02:41;;;;;;;10.10;9.50;;;;;;;4.16;70.18;93015.16;5008889;28;20384;-71
2022/04/13 00:05:08;;;;;;;9.63;9.03;;;;;;;4.18;70.40;93013.16;5008807;28;20266;-71
2022/04/13 00:07:34;;;;;;;9.57;9.17;;;;;;;4.15;70.92;93006.66;5008505;28;20237;-70
2022/04/13 00:09:59;;;;;;;9.90;9.07;;;;;;;4.12;70.62;92994.19;5008864;28;20219;-70
2022/04/13 00:12:25;;;;;;;9.23;8.80;;;;;;;4.22;70.82;93006.50;5009704;28;20187;-72
2022/04/13 00:14:50;;;;;;;10.43;9.93;;;;;;;4.20;70.45;93014.47;5009619;28;20227;-71
2022/04/13 00:17:16;;;;;;;9.97;9.57;;;;;;;4.11;70.57;93005.53;5009537;28;20199;-71
2022/04/13 00:19:41;;;;;;;9.40;8.90;;;;;;;3.99;70.81;93002.19;5009296;28;20290;-70
2022/04/13 00:22:07;;;;;;;9.90;9.33;;;;;;;4.02;70.56;92995.78;5009881;28;20231;-70
2022/04/13 00:24:32;;;;;;;10.33;9.83;;;;;;;4.08;70.78;93007.78;5009097;28;20243;-71
2022/04/13 00:26:58;;;;;;;9.47;8.83;;;;;;;4.00;70.50;93003.75;5009828;28;20701;-71
2022/04/13 00:29:24;;;;;;;9.57;9.13;;;;;;;3.97;70.27;92999.03;5024292;28;21034;-70
2022/04/13 00:31:52;;;;;;;9.50;9.10;;;;;;;3.93;70.67;93003.09;5009706;28;20202;-71
2022/04/13 00:34:18;;;;;;;9.60;9.20;;;;;;;3.84;70.85;92985.63;5008705;28;20299;-71
2022/04/13 00:36:44;;;;;;;10.53;9.73;;;;;;;4.01;70.05;93002.75;5009511;28;20199;-70
2022/04/13 00:39:09;;;;;;;10.20;9.47;;;;;;;4.05;71.86;93005.66;5008245;28;20243;-70
2022/04/13 00:41:35;;;;;;;10.10;9.60;;;;;;;3.99;70.94;93004.78;5009637;28;20180;-71
2022/04/13 00:44:08;;;;;;;9.03;8.63;;;;;;;4.01;71.10;93005.34;5009034;28;20234;-71
2022/04/13 00:46:34;;;;;;;9.30;8.70;;;;;;;3.93;72.37;93004.91;5009637;28;20785;-71
2022/04/13 00:49:01;;;;;;;8.97;8.50;;;;;;;3.92;71.85;93009.28;5008379;28;20250;-71
2022/04/13 00:51:27;;;;;;;9.83;9.40;;;;;;;3.85;73.20;93005.25;5009102;28;20199;-70
2022/04/13 00:53:56;;;;;;;9.73;9.07;;;;;;;3.77;73.40;92997.84;5007907;28;20231;-71
2022/04/13 00:56:24;;;;;;;9.30;8.90;;;;;;;3.65;73.56;92987.56;5008321;28;20279;-71
2022/04/13 00:58:54;;;;;;;9.23;8.63;;;;;;;3.60;73.41;92997.78;5007370;28;20254;-70
2022/04/13 01:01:22;;;;;;;8.57;7.93;;;;;;;3.72;73.16;93008.88;5009072;28;20230;-71
2022/04/13 01:03:51;;;;;;;9.80;9.10;;;;;;;3.80;72.47;93007.75;5007667;28;20266;-70
2022/04/13 01:06:19;;;;;;;9.13;8.50;;;;;;;3.85;72.07;93002.66;5009119;28;20196;-70
2022/04/13 01:08:48;;;;;;;9.80;9.33;;;;;;;3.71;73.05;93011.66;5008863;28;20296;-71
2022/04/13 01:11:14;;;;;;;8.50;8.13;;;;;;;3.52;73.80;93010.25;5009654;28;20183;-70
2022/04/13 01:13:40;;;;;;;10.70;10.10;;;;;;;3.54;74.02;93003.84;5009095;28;20259;-70
2022/04/13 01:16:06;;;;;;;9.43;8.93;;;;;;;3.39;73.72;93003.53;5024427;28;20184;-70
2022/04/13 01:18:32;;;;;;;9.90;9.40;;;;;;;3.59;73.89;93009.13;5008530;28;20223;-71
2022/04/13 01:20:58;;;;;;;9.97;9.30;;;;;;;3.46;74.21;93011.94;5011304;28;20222;-71
2022/04/13 01:23:24;;;;;;;9.93;9.33;;;;;;;3.42;74.21;92994.53;5012227;28;20231;-71
2022/04/13 01:25:52;;;;;;;9.57;8.80;;;;;;;3.29;75.12;93011.84;5012932;28;20192;-71
2022/04/13 01:28:18;;;;;;;10.60;9.87;;;;;;;3.28;75.22;93005.09;5012581;28;20257;-70
2022/04/13 01:30:44;;;;;;;9.80;9.37;;;;;;;3.39;74.27;93006.13;5012428;28;20188;-70
2022/04/13 01:33:09;;;;;;;11.50;10.97;;;;;;;3.32;73.41;93008.00;5011880;28;20253;-71
2022/04/13 01:35:35;;;;;;;9.80;9.30;;;;;;;3.28;73.77;93006.91;5011802;28;20200;-69
2022/04/13 01:38:00;;;;;;;9.90;9.07;;;;;;;3.33;74.81;93021.69;5012818;28;20187;-74
2022/04/13 01:40:26;;;;;;;10.30;9.80;;;;;;;3.33;75.04;93019.91;5013232;28;20213;-73
2022/04/13 01:42:51;;;;;;;9.47;8.97;;;;;;;3.31;74.18;93009.03;5013062;28;20215;-73
2022/04/13 01:45:20;;;;;;;10.93;8.90;;;;;;;3.34;74.58;93013.72;5011691;28;20199;-74
2022/04/13 01:47:54;;;;;;;9.97;9.47;;;;;;;3.20;74.53;93007.22;5012526;28;20202;-74
2022/04/13 01:50:20;;;;;;;10.37;9.87;;;;;;;3.11;74.38;92993.09;5012321;28;20199;-74
2022/04/13 01:52:47;;;;;;;9.63;9.17;;;;;;;3.31;74.32;93009.03;5011996;28;20191;-74
2022/04/13 01:55:13;;;;;;;15.57;10.10;;;;;;;3.20;74.63;93007.22;5012619;28;20195;-74
2022/04/13 01:57:40;;;;;;;9.83;9.23;;;;;;;3.20;74.51;93002.88;5012782;28;20214;-73
2022/04/13 02:00:08;;;;;;;11.23;10.53;;;;;;;3.15;74.35;93001.94;5011379;28;20235;-73
2022/04/13 02:02:33;;;;;;;9.07;8.67;;;;;;;3.20;74.59;93010.59;5012453;28;20263;-74
2022/04/13 02:04:59;;;;;;;9.77;9.07;;;;;;;3.25;74.13;93004.75;5011387;28;20231;-74
2022/04/13 02:07:26;;;;;;;10.67;9.87;;;;;;;3.20;74.93;93007.22;5012131;28;20206;-74
2022/04/13 02:09:52;;;;;;;10.40;9.80;;;;;;;3.06;74.59;92996.34;5011985;28;20232;-74
2022/04/13 02:12:18;;;;;;;9.17;8.77;;;;;;;3.15;74.66;93005.31;5012429;28;20201;-74
2022/04/13 02:14:44;;;;;;;10.67;10.07;;;;;;;3.14;75.08;93003.72;5011729;28;20259;-73
2022/04/13 02:17:10;;;;;;;10.07;9.47;;;;;;;3.07;75.05;92986.78;5011919;28;20219;-73
2022/04/13 02:19:36;;;;;;;10.90;10.20;;;;;;;3.04;74.88;92984.66;5011356;28;20234;-73
2022/04/13 02:22:01;;;;;;;9.97;9.40;;;;;;;3.14;74.63;92992.66;5011487;28;20227;-74
2022/04/13 02:24:26;;;;;;;10.03;9.53;;;;;;;3.12;75.27;92986.91;5010527;28;20235;-73
2022/04/13 02:26:52;;;;;;;10.90;10.37;;;;;;;2.91;75.11;92953.97;5011706;28;20620;-73
2022/04/13 02:29:17;;;;;;;10.43;9.93;;;;;;;3.08;75.28;92993.53;5010151;28;20290;-73
2022/04/13 02:31:43;;;;;;;9.93;9.33;;;;;;;3.03;75.08;92990.84;5012016;28;20852;-74
2022/04/13 02:34:08;;;;;;;10.80;10.20;;;;;;;2.96;75.45;92988.38;5011231;28;20933;-73
2022/04/13 02:36:33;;;;;;;11.50;10.60;;;;;;;2.99;75.24;92992.28;5011401;28;20187;-73
2022/04/13 02:38:59;;;;;;;9.70;9.23;;;;;;;2.83;75.14;92959.44;5011052;28;20231;-77
2022/04/13 02:41:25;;;;;;;10.50;9.83;;;;;;;2.99;75.51;92993.06;5011307;28;20222;-73
2022/04/13 02:43:50;;;;;;;10.37;9.83;;;;;;;3.10;75.62;92991.50;5011128;28;20231;-74
2022/04/13 02:46:15;;;;;;;9.67;9.17;;;;;;;2.79;76.40;92968.63;5011339;28;20263;-73
2022/04/13 02:48:41;;;;;;;9.97;9.27;;;;;;;2.94;76.41;92981.88;5009926;28;20242;-74
2022/04/13 02:51:06;;;;;;;9.93;9.27;;;;;;;2.90;76.06;92986.69;5011466;28;20226;-73
2022/04/13 02:53:32;;;;;;;9.60;9.10;;;;;;;2.80;76.00;92970.97;5010934;28;20261;-73
2022/04/13 02:55:58;;;;;;;9.03;8.63;;;;;;;2.89;76.12;92985.13;5011202;28;20256;-74
2022/04/13 02:58:24;;;;;;;9.50;9.10;;;;;;;2.80;77.01;92990.81;5010752;28;20283;-73
2022/04/13 03:00:49;;;;;;;10.53;9.77;;;;;;;2.95;76.87;92981.66;5011386;28;20222;-73
2022/04/13 03:03:16;;;;;;;9.90;9.17;;;;;;;3.01;76.73;92987.69;5010234;28;20235;-74
2022/04/13 03:05:42;;;;;;;9.03;8.63;;;;;;;2.99;76.83;92990.50;5011591;28;20249;-74
2022/04/13 03:08:08;;;;;;;9.70;8.77;;;;;;;2.76;76.64;92969.06;5010250;28;20235;-74
2022/04/13 03:10:33;;;;;;;9.50;9.07;;;;;;;2.60;78.63;92996.25;5011798;28;20179;-73
2022/04/13 03:12:59;;;;;;;9.07;8.63;;;;;;;2.83;77.60;93005.84;5010736;28;20203;-74
2022/04/13 03:15:24;;;;;;;9.60;9.03;;;;;;;2.84;77.17;93005.63;5011161;28;20192;-74
2022/04/13 03:17:53;;;;;;;9.00;8.40;;;;;;;2.76;76.68;93007.72;5010558;28;20271;-73
2022/04/13 03:20:18;;;;;;;9.27;8.87;;;;;;;2.70;77.36;93013.75;5010439;28;20191;-73
2022/04/13 03:22:44;;;;;;;9.90;9.27;;;;;;;2.74;76.92;93012.34;5010608;28;20231;-73
2022/04/13 03:25:10;;;;;;;9.53;9.10;;;;;;;2.84;77.19;93013.34;5010128;28;20223;-74
2022/04/13 03:27:37;;;;;;;10.07;9.63;;;;;;;2.96;76.06;93015.94;5010263;28;20264;-74
2022/04/13 03:30:04;;;;;;;10.20;9.50;;;;;;;2.77;77.24;93011.88;5010119;28;20246;-73
2022/04/13 03:32:39;;;;;;;9.83;8.70;;;;;;;2.66;77.25;92994.59;5010314;28;20187;-74
2022/04/13 03:35:07;;;;;;;8.67;8.30;;;;;;;2.61;77.33;92994.47;5010727;28;20239;-74
2022/04/13 03:37:32;;;;;;;9.77;9.37;;;;;;;2.86;76.89;93010.56;5010502;28;20274;-74
2022/04/13 03:39:58;;;;;;;8.87;8.47;;;;;;;2.65;77.34;93008.47;5009952;28;20226;-74
2022/04/13 03:42:23;;;;;;;9.30;8.90;;;;;;;2.83;76.46;93005.84;5009867;28;20188;-73
2022/04/13 03:44:49;;;;;;;9.43;9.03;;;;;;;2.83;76.77;93009.19;5011120;28;20223;-73
2022/04/13 03:47:14;;;;;;;10.13;9.43;;;;;;;2.60;77.54;93001.41;5009431;28;20278;-73
2022/04/13 03:49:39;;;;;;;9.70;9.07;;;;;;;2.54;78.59;93010.03;5010177;28;21041;-74
2022/04/13 03:52:05;;;;;;;10.07;9.47;;;;;;;2.81;78.13;93021.53;5007602;28;20266;-79
2022/04/13 03:54:30;;;;;;;9.17;8.70;;;;;;;2.65;77.50;92993.81;5009535;28;20909;-78
2022/04/13 03:56:56;;;;;;;9.83;9.33;;;;;;;2.75;78.12;93017.28;5009819;28;20187;-90
2022/04/13 03:59:23;;;;;;;9.27;8.87;;;;;;;2.85;77.47;93019.28;5006817;28;20219;-79
2022/04/13 04:01:49;;;;;;;10.77;9.97;;;;;;;2.86;77.28;93010.56;5009934;28;20222;-79
2022/04/13 04:04:14;;;;;;;10.50;9.57;;;;;;;2.83;77.47;92998.88;5009266;28;20231;-77
2022/04/13 04:06:40;;;;;;;10.90;10.23;;;;;;;2.99;76.58;93015.50;5009906;28;20183;-79
2022/04/13 04:09:05;;;;;;;10.00;9.40;;;;;;;3.04;76.97;93018.19;5008557;28;20242;-74
2022/04/13 04:11:31;;;;;;;10.33;9.37;;;;;;;2.98;77.40;93019.09;5009372;28;20187;-80
2022/04/13 04:13:56;;;;;;;10.47;9.97;;;;;;;2.82;77.47;93001.69;5008399;28;20262;-78
2022/04/13 04:16:22;;;;;;;9.07;8.40;;;;;;;3.03;77.47;93032.09;5010002;28;20217;-80
2022/04/13 04:18:50;;;;;;;10.50;9.80;;;;;;;2.77;78.60;93007.50;5008143;28;20320;-87
2022/04/13 04:21:15;;;;;;;10.67;9.77;;;;;;;3.18;78.08;93042.78;5009738;28;20306;-83
2022/04/13 04:23:41;;;;;;;10.87;9.97;;;;;;;3.29;77.24;93039.41;5009459;28;20242;-81
2022/04/13 04:26:07;;;;;;;11.70;10.63;;;;;;;3.16;76.56;93026.72;5010070;28;20221;-76
2022/04/13 04:28:33;;;;;;;10.00;9.50;;;;;;;3.50;75.28;93063.88;5008915;28;20223;-76
2022/04/13 04:30:58;;;;;;;11.93;11.07;;;;;;;3.72;76.09;93068.25;5012850;28;20737;-70
2022/04/13 04:33:24;;;;;;;11.73;10.80;;;;;;;3.78;73.86;93057.03;5008773;28;20251;-70
2022/04/13 04:35:51;;;;;;;11.17;10.37;;;;;;;3.96;73.02;93062.06;5009151;28;20215;-70
2022/04/13 04:38:17;;;;;;;11.07;10.37;;;;;;;4.04;73.07;93074.63;5007816;28;20254;-70
2022/04/13 04:40:43;;;;;;;12.17;11.47;;;;;;;3.81;73.83;93048.84;5023690;28;20196;-69
2022/04/13 04:43:09;;;;;;;12.20;11.37;;;;;;;4.02;74.55;93071.47;5007784;28;20226;-70
2022/04/13 04:45:35;;;;;;;11.93;11.23;;;;;;;4.39;69.88;93070.16;5008261;28;20179;-70
2022/04/13 04:48:04;;;;;;;22.17;11.33;;;;;;;4.54;69.27;93083.38;5007947;28;20203;-70
2022/04/13 04:50:31;;;;;;;11.43;10.57;;;;;;;4.62;69.25;93085.56;5008424;28;20198;-70
2022/04/13 04:52:56;;;;;;;11.57;10.77;;;;;;;4.36;69.47;93073.19;5006705;28;20282;-70
2022/04/13 04:55:22;;;;;;;12.63;11.70;;;;;;;4.21;68.18;93078.06;5011649;28;20219;-70
2022/04/13 04:57:48;;;;;;;11.23;10.57;;;;;;;4.59;69.12;93101.56;5012556;28;20195;-70
2022/04/13 05:00:19;;;;;;;13.20;12.20;;;;;;;4.97;66.59;93106.13;5012380;28;21557;-70
2022/04/13 05:02:51;;;;;;;10.80;10.13;;;;;;;4.82;67.00;93085.94;5011897;28;20215;-70
2022/04/13 05:05:17;;;;;;;10.77;10.13;;;;;;;5.17;65.82;93105.72;5010930;28;20204;-74
2022/04/13 05:07:43;;;;;;;12.77;11.83;;;;;;;5.00;66.41;93107.50;5010318;28;21064;-76
2022/04/13 05:10:09;;;;;;;12.23;11.53;;;;;;;5.05;64.75;93089.44;5011088;28;20233;-76
2022/04/13 05:12:47;;;;;;;12.47;11.37;;;;;;;5.09;65.88;93111.25;5012003;28;20195;-77
2022/04/13 05:15:13;;;;;;;13.10;12.17;;;;;;;4.86;66.77;93089.66;5009747;28;20188;-78
2022/04/13 05:17:39;;;;;;;11.43;10.70;;;;;;;4.61;69.48;93117.63;5011428;28;20190;-79
2022/04/13 05:20:06;;;;;;;11.60;10.90;;;;;;;4.91;67.75;93120.78;5010094;28;20233;-82
2022/04/13 05:22:31;;;;;;;11.90;11.03;;;;;;;5.12;66.48;93097.84;5010150;28;20250;-81
2022/04/13 05:25:09;;;;;;;12.43;11.03;;;;;;;5.30;66.57;93115.75;5010267;28;20310;-82
2022/04/13 05:27:34;;;;;;;12.63;11.60;;;;;;;4.97;66.78;93082.84;5010956;28;20241;-79
2022/04/13 05:30:00;;;;;;;12.80;12.00;;;;;;;4.94;65.77;93073.75;5011025;28;20230;-80
2022/04/13 05:32:26;;;;;;;12.27;11.47;;;;;;;5.13;65.54;93094.25;5012137;28;20203;-80
2022/04/13 05:35:00;;;;;;;12.40;11.67;;;;;;;5.39;67.67;93115.13;5011429;28;20238;-80
2022/04/13 05:37:27;;;;;;;10.77;9.97;;;;;;;5.80;64.61;93121.72;5011003;28;20187;-78
2022/04/13 05:39:52;;;;;;;13.03;11.87;;;;;;;5.98;63.49;93116.31;5010174;28;20228;-80
2022/04/13 05:42:22;;;;;;;10.67;9.97;;;;;;;6.17;62.03;93104.66;5011432;28;20239;-80
2022/04/13 05:44:48;;;;;;;12.27;11.20;;;;;;;6.53;61.99;93127.44;5009161;28;20231;-81
2022/04/13 05:47:13;;;;;;;11.63;10.77;;;;;;;6.50;61.25;93094.19;5011151;28;20314;-83
2022/04/13 05:49:39;;;;;;;10.33;9.73;;;;;;;6.56;59.05;93124.34;5010490;28;20227;-77
2022/04/13 05:52:04;;;;;;;11.37;10.77;;;;;;;6.53;57.95;93135.22;5010233;28;20222;-79
2022/04/13 05:54:29;;;;;;;9.43;8.93;;;;;;;6.94;56.82;93132.06;5008839;28;20243;-79
2022/04/13 05:56:55;;;;;;;11.00;10.23;;;;;;;7.47;55.41;93129.47;5010820;28;20634;-74
2022/04/13 05:59:20;;;;;;;10.57;9.97;;;;;;;11.71;45.29;93112.22;5010677;28;20223;-76
2022/04/13 06:01:46;;;;;;;11.30;10.53;;;;;;;15.35;37.34;93135.56;5010984;28;20183;-77
2022/04/13 06:04:11;;;;;;;10.50;9.83;;;;;;;14.89;37.26;93140.97;5011319;28;20238;-76
2022/04/13 06:06:37;;;;;;;11.37;10.67;;;;;;;11.52;43.03;93137.44;5010400;28;20184;-76
2022/04/13 06:09:02;;;;;;;10.87;10.17;;;;;;;10.24;48.06;93107.91;5011657;28;20216;-76
2022/04/13 06:11:27;;;;;;;10.30;9.60;;;;;;;9.68;50.11;93128.00;5011051;28;20203;-76
2022/04/13 06:13:53;;;;;;;10.97;9.87;;;;;;;9.16;50.32;93114.34;5009956;28;20223;-75
2022/04/13 06:16:19;;;;;;;10.57;9.93;;;;;;;8.72;52.01;93107.94;5011423;28;20190;-76
2022/04/13 06:18:44;;;;;;;12.07;11.13;;;;;;;8.89;53.24;93130.16;5006683;28;20228;-75
2022/04/13 06:21:10;;;;;;;11.93;11.13;;;;;;;8.48;53.68;93125.03;4989226;28;20292;-76
2022/04/13 06:23:35;;;;;;;10.23;9.70;;;;;;;8.59;53.00;93132.59;4998737;28;20239;-76
2022/04/13 06:26:01;;;;;;;10.50;9.90;;;;;;;8.46;53.37;93132.28;5007425;28;20202;-77
2022/04/13 06:28:26;;;;;;;13.10;11.93;;;;;;;8.32;54.36;93118.97;5011025;28;20228;-77
2022/04/13 06:30:51;;;;;;;11.83;11.03;;;;;;;8.42;55.21;93152.81;5012405;28;20275;-76
2022/04/13 06:33:18;;;;;;;11.67;10.90;;;;;;;8.28;55.60;93137.91;5011289;28;20223;-76
2022/04/13 06:35:44;;;;;;;11.27;10.43;;;;;;;8.50;54.81;93126.31;5011358;28;20183;-76
2022/04/13 06:38:09;;;;;;;11.57;10.87;;;;;;;8.60;52.60;93130.78;5011020;28;20231;-76
2022/04/13 06:40:35;;;;;;;11.23;10.43;;;;;;;8.68;51.54;93119.91;5011232;28;20187;-75
2022/04/13 06:43:00;;;;;;;11.67;10.93;;;;;;;8.11;54.17;93097.22;5011392;28;20265;-76
2022/04/13 06:45:26;;;;;;;11.07;10.13;;;;;;;8.70;52.86;93128.25;5011310;28;20199;-74
2022/04/13 06:47:51;;;;;;;10.30;9.70;;;;;;;8.69;52.38;93118.84;5010720;28;20195;-74
2022/04/13 06:50:17;;;;;;;10.90;10.03;;;;;;;8.80;52.25;93134.28;5011628;28;20251;-73
2022/04/13 06:52:42;;;;;;;14.67;12.30;;;;;;;8.77;53.52;93136.59;5010312;28;20215;-74
2022/04/13 06:55:11;;;;;;;13.20;12.17;;;;;;;8.62;53.64;93146.94;5010694;28;20231;-75
2022/04/13 06:57:38;;;;;;;13.87;12.80;;;;;;;8.19;55.26;93111.56;5011068;28;20234;-75
2022/04/13 07:00:13;;;;;;;11.97;11.17;;;;;;;8.66;52.60;93145.41;5011515;28;20254;-74
2022/04/13 07:02:40;;;;;;;12.20;11.37;;;;;;;8.86;51.92;93151.47;5010600;28;20180;-75
2022/04/13 07:05:06;;;;;;;11.83;10.83;;;;;;;8.87;53.26;93152.28;5010391;28;20238;-74
2022/04/13 07:07:32;;;;;;;12.07;11.07;;;;;;;8.41;55.04;93153.06;5010813;28;20196;-74
2022/04/13 07:09:58;;;;;;;10.97;10.23;;;;;;;9.06;52.51;93148.94;5010301;28;20238;-74
2022/04/13 07:12:23;;;;;;;11.57;10.90;;;;;;;8.98;51.37;93153.88;5010647;28;20222;-75
2022/04/13 07:14:49;;;;;;;12.33;11.33;;;;;;;8.82;52.87;93154.84;5010945;28;20242;-75
2022/04/13 07:17:14;;;;;;;11.30;10.50;;;;;;;8.75;52.05;93151.69;5009572;28;20227;-75
2022/04/13 07:19:40;;;;;;;11.67;10.50;;;;;;;9.02;52.65;93157.53;5009959;28;20255;-75
2022/04/13 07:22:06;;;;;;;10.73;10.13;;;;;;;9.39;50.89;93160.75;5010206;28;20315;-75
2022/04/13 07:24:31;;;;;;;11.63;10.67;;;;;;;9.61;50.84;93159.53;5009746;28;20231;-75
2022/04/13 07:26:57;;;;;;;11.43;10.70;;;;;;;9.58;49.47;93164.47;5010467;28;20195;-75
2022/04/13 07:29:23;;;;;;;11.90;10.80;;;;;;;9.41;48.54;93163.91;5009310;28;20247;-75
2022/04/13 07:31:49;;;;;;;12.73;11.77;;;;;;;9.35;49.20;93163.09;5010160;28;20195;-75
2022/04/13 07:34:14;;;;;;;11.87;10.20;;;;;;;9.53;49.98;93157.41;5009337;28;20247;-75
2022/04/13 07:36:40;;;;;;;11.83;10.83;;;;;;;9.69;50.31;93145.19;5009289;28;20226;-75
2022/04/13 07:39:06;;;;;;;11.07;10.27;;;;;;;9.82;48.99;93165.53;5009441;28;20254;-75
2022/04/13 07:41:31;;;;;;;12.73;11.57;;;;;;;9.68;48.10;93143.63;5009461;28;20179;-75
2022/04/13 07:43:57;;;;;;;10.53;9.63;;;;;;;9.95;47.40;93159.00;5009279;28;20239;-74
2022/04/13 07:46:27;;;;;;;12.53;11.63;;;;;;;9.79;48.17;93160.81;5010004;28;20176;-76
2022/04/13 07:48:53;;;;;;;14.03;12.93;;;;;;;9.53;48.33;93157.41;5008868;28;20238;-77
2022/04/13 07:51:19;;;;;;;11.67;10.97;;;;;;;10.09;47.53;93155.66;5008780;28;20202;-75
2022/04/13 07:53:45;;;;;;;12.27;11.47;;;;;;;9.78;48.05;93141.00;5008462;28;20286;-75
2022/04/13 07:56:10;;;;;;;10.53;9.63;;;;;;;9.96;48.90;93145.69;5009210;28;20191;-75
2022/04/13 07:58:36;;;;;;;12.47;11.03;;;;;;;10.16;44.65;93144.97;5009626;28;20243;-74
2022/04/13 08:01:02;;;;;;;11.30;10.50;;;;;;;10.20;44.53;93152.00;5010283;28;20199;-74
2022/04/13 08:03:27;;;;;;;11.10;10.10;;;;;;;10.32;44.94;93156.97;5008350;28;20216;-74
2022/04/13 08:05:52;;;;;;;9.87;9.27;;;;;;;10.58;44.43;93159.25;5009664;28;20799;-74
2022/04/13 08:08:18;;;;;;;11.07;10.37;;;;;;;10.25;40.53;93165.03;5009073;28;20250;-75
2022/04/13 08:10:45;;;;;;;10.33;9.70;;;;;;;10.28;41.34;93163.72;5009552;28;20266;-74
2022/04/13 08:13:10;;;;;;;10.00;9.30;;;;;;;10.31;41.71;93148.34;5009546;28;20239;-75
2022/04/13 08:15:36;;;;;;;10.57;9.93;;;;;;;10.72;42.45;93160.25;5008877;28;20188;-74
2022/04/13 08:18:01;;;;;;;9.47;8.67;;;;;;;10.64;41.81;93158.19;5009189;28;20204;-75
2022/04/13 08:20:27;;;;;;;9.53;8.97;;;;;;;11.04;42.83;93158.06;5008381;28;20214;-74
2022/04/13 08:22:52;;;;;;;9.30;8.80;;;;;;;11.02;41.26;93169.81;5008260;28;20219;-75
2022/04/13 08:25:18;;;;;;;10.53;9.93;;;;;;;11.32;40.56;93169.69;5009557;28;20214;-74
2022/04/13 08:27:45;;;;;;;9.50;8.90;;;;;;;11.31;38.61;93165.53;5008472;28;20221;-74
2022/04/13 08:30:12;;;;;;;10.77;9.90;;;;;;;11.24;37.25;93165.03;5009144;28;20203;-75
2022/04/13 08:32:39;;;;;;;8.97;8.47;;;;;;;10.85;36.46;93157.09;5008568;28;20191;-75
2022/04/13 08:35:05;;;;;;;8.50;8.03;;;;;;;10.85;35.35;93170.13;5009026;28;20223;-73
2022/04/13 08:37:32;;;;;;;8.70;8.20;;;;;;;11.05;35.89;93128.25;5009548;28;20194;-75
2022/04/13 08:39:58;;;;;;;9.63;8.97;;;;;;;11.11;34.85;93155.16;5008357;28;20287;-74
2022/04/13 08:42:37;;;;;;;7.93;7.53;;;;;;;11.02;34.93;93170.59;5010396;28;20199;-75
2022/04/13 08:45:17;;;;;;;8.77;8.27;;;;;;;11.14;32.33;93134.50;5008792;28;20257;-73
2022/04/13 08:47:44;;;;;;;7.67;7.27;;;;;;;11.25;31.75;93156.16;5008927;28;20184;-75
2022/04/13 08:50:10;;;;;;;9.20;8.30;;;;;;;11.56;47.04;93162.00;4983590;28;20215;-75
2022/04/13 08:52:38;;;;;;;9.80;9.10;;;;;;;11.26;37.14;93155.09;4990100;28;20220;-75
2022/04/13 08:55:08;;;;;;;8.70;8.00;;;;;;;11.77;34.67;93160.84;5007921;28;20219;-74
2022/04/13 08:57:45;;;;;;;8.80;8.10;;;;;;;11.78;33.06;93162.41;5008643;28;20178;-74
2022/04/13 09:00:17;;;;;;;8.43;7.97;;;;;;;11.65;31.63;93157.78;5008473;28;20237;-74
2022/04/13 09:03:01;;;;;;;8.77;8.20;;;;;;;11.58;33.05;93152.81;5008538;28;20191;-74
2022/04/13 09:05:33;;;;;;;9.00;8.50;;;;;;;11.49;32.80;93140.59;5009143;28;20220;-74
2022/04/13 09:08:08;;;;;;;9.73;9.13;;;;;;;11.59;33.96;93153.59;5008661;28;20180;-74
2022/04/13 09:10:36;;;;;;;9.67;9.10;;;;;;;11.57;33.42;93134.78;5008713;28;20189;-74
2022/04/13 09:13:02;;;;;;;9.60;9.10;;;;;;;11.48;32.68;93136.41;5008967;28;20190;-75
2022/04/13 09:15:28;;;;;;;8.90;8.47;;;;;;;11.55;32.44;93152.59;5009380;28;20195;-74
2022/04/13 09:17:54;;;;;;;9.57;8.87;;;;;;;11.47;32.91;93138.25;5008023;28;20183;-74
2022/04/13 09:20:20;;;;;;;9.03;8.53;;;;;;;11.56;31.92;93144.47;5009329;28;20289;-76
2022/04/13 09:22:46;;;;;;;9.37;8.97;;;;;;;11.82;30.85;93143.28;5009372;28;20235;-74
2022/04/13 09:25:12;;;;;;;9.17;8.60;;;;;;;11.86;30.30;93122.59;5008645;28;20293;-76
2022/04/13 09:27:38;;;;;;;8.37;7.93;;;;;;;11.80;30.35;93119.22;5008349;28;20195;-75
2022/04/13 09:30:09;;;;;;;9.33;8.80;;;;;;;12.24;30.49;93134.84;5008293;28;20292;-74
2022/04/13 09:32:34;;;;;;;8.93;8.33;;;;;;;12.09;31.34;93108.81;5008942;28;20223;-74
2022/04/13 09:35:00;;;;;;;9.87;9.23;;;;;;;12.54;30.54;93130.13;5008429;28;20238;-75
2022/04/13 09:37:26;;;;;;;9.43;8.87;;;;;;;12.07;29.51;93124.00;5009039;28;20282;-75
2022/04/13 09:39:52;;;;;;;9.43;8.73;;;;;;;11.83;30.27;93112.69;5007728;28;20211;-73
2022/04/13 09:42:18;;;;;;;9.80;8.90;;;;;;;11.72;30.21;93116.44;5011743;28;20211;-74
2022/04/13 09:44:55;;;;;;;8.70;8.30;;;;;;;11.99;29.09;93127.19;5011489;28;20228;-75
2022/04/13 09:47:20;;;;;;;9.47;8.87;;;;;;;12.20;29.73;93139.06;5012102;28;20203;-74
2022/04/13 09:49:53;;;;;;;8.60;8.10;;;;;;;12.32;29.91;93131.63;5011207;28;20262;-73
2022/04/13 09:52:37;;;;;;;10.10;9.07;;;;;;;12.44;29.61;93132.03;5012106;28;20943;-75
2022/04/13 09:55:07;;;;;;;10.07;9.27;;;;;;;12.56;28.93;93122.75;5010653;28;20250;-75
2022/04/13 09:57:33;;;;;;;9.07;8.57;;;;;;;12.70;26.93;93123.63;5011844;28;20270;-74
2022/04/13 10:00:05;;;;;;;8.63;8.03;;;;;;;12.41;26.18;93129.97;5011459;28;20926;-75
2022/04/13 10:02:43;;;;;;;9.27;8.87;;;;;;;12.58;26.58;93115.41;5010962;28;20992;-74
2022/04/13 10:05:21;;;;;;;8.67;8.23;;;;;;;12.23;26.12;93112.34;5011194;28;20231;-75
2022/04/13 10:08:10;;;;;;;9.07;8.60;;;;;;;12.52;28.21;93113.09;5009578;28;20203;-74
2022/04/13 10:10:40;;;;;;;10.23;9.63;;;;;;;12.65;27.88;93110.59;5009512;28;20257;-74
2022/04/13 10:13:06;;;;;;;8.83;8.33;;;;;;;12.98;25.07;93113.38;5011021;28;20242;-78
2022/04/13 10:15:31;;;;;;;10.03;9.53;;;;;;;12.64;25.87;93116.91;5010779;28;20195;-74
2022/04/13 10:18:00;;;;;;;9.37;8.87;;;;;;;13.00;27.18;93121.75;5010872;28;20191;-74
2022/04/13 10:20:43;;;;;;;10.07;9.47;;;;;;;12.34;27.28;93124.28;5008787;28;20193;-74
2022/04/13 10:23:09;;;;;;;9.53;8.97;;;;;;;12.62;26.46;93113.78;5009709;28;20235;-73
2022/04/13 10:25:34;;;;;;;9.00;8.57;;;;;;;12.70;27.33;93112.41;5009327;28;20190;-74
2022/04/13 10:28:01;;;;;;;9.77;9.17;;;;;;;12.88;25.07;93101.97;5011048;28;20187;-74
2022/04/13 10:30:29;;;;;;;9.30;8.80;;;;;;;12.81;26.20;93096.28;5011028;28;20194;-73
2022/04/13 10:33:04;;;;;;;8.57;8.17;;;;;;;13.11;25.45;93102.22;5010112;28;20191;-73
2022/04/13 10:35:32;;;;;;;8.93;8.53;;;;;;;13.16;26.26;93100.34;5010747;28;20200;-75
2022/04/13 10:37:57;;;;;;;8.33;7.93;;;;;;;13.15;24.00;93104.03;5010312;28;20180;-76
2022/04/13 10:40:30;;;;;;;8.30;7.80;;;;;;;13.41;25.21;93105.25;5010522;28;20210;-75
2022/04/13 10:42:59;;;;;;;8.40;7.97;;;;;;;13.06;25.79;93084.72;5010389;28;20223;-75
2022/04/13 10:45:26;;;;;;;7.37;7.07;;;;;;;13.25;25.18;93103.09;5010051;28;20267;-74
2022/04/13 10:48:05;;;;;;;8.40;8.10;;;;;;;13.19;23.34;93089.28;5009835;28;20194;-74
2022/04/13 10:50:45;;;;;;;9.23;8.80;;;;;;;13.34;25.99;93093.56;5009070;28;20203;-74
2022/04/13 10:53:30;;;;;;;8.63;8.23;;;;;;;13.22;24.95;93093.97;5009737;28;20227;-75
2022/04/13 10:56:00;;;;;;;9.53;9.13;;;;;;;13.04;25.26;93093.94;5009789;28;20195;-74
2022/04/13 10:58:58;;;;;;;7.87;7.57;;;;;;;13.42;26.38;93090.28;5008881;28;20906;-74
2022/04/13 11:01:29;;;;;;;8.37;7.87;;;;;;;13.39;26.21;93073.28;5008550;28;20196;-74
2022/04/13 11:03:55;;;;;;;9.33;8.93;;;;;;;13.62;26.14;93082.16;5009748;28;20242;-74
2022/04/13 11:06:22;;;;;;;9.40;8.90;;;;;;;13.50;27.77;93087.81;5009815;28;20203;-74
2022/04/13 11:09:00;;;;;;;8.57;8.13;;;;;;;13.18;23.80;93084.34;5009898;28;20230;-75
2022/04/13 11:11:28;;;;;;;9.17;8.67;;;;;;;13.32;26.11;93082.56;5011110;28;20218;-74
2022/04/13 11:13:54;;;;;;;8.80;8.30;;;;;;;13.38;25.90;93076.97;5010123;28;20226;-75
2022/04/13 11:16:22;;;;;;;9.73;9.13;;;;;;;13.26;26.41;93083.69;5009506;28;21242;-75
2022/04/13 11:19:06;;;;;;;9.00;8.60;;;;;;;13.39;26.87;93078.53;5008210;28;20306;-74
2022/04/13 11:21:55;;;;;;;8.17;7.80;;;;;;;13.39;27.32;93067.25;5008577;28;21299;-75
2022/04/13 11:24:54;;;;;;;9.40;9.00;;;;;;;13.61;26.91;93072.69;5008303;28;20258;-75
2022/04/13 11:27:20;;;;;;;8.90;8.50;;;;;;;13.60;27.49;93066.69;5009802;28;20207;-75
2022/04/13 11:29:58;;;;;;;9.80;9.23;;;;;;;13.40;27.12;93060.97;5009070;28;20220;-75
2022/04/13 11:32:25;;;;;;;9.17;8.77;;;;;;;13.59;27.60;93061.69;5009861;28;20839;-74